Time;durP1;ratioP1;P1;durP2;ratioP2;P2;SDS_P1;SDS_P2;PMS_P1;PMS_P2;Temp;Humidity;BMP_temperature;BMP_pressure;BME280_temperature;BME280_humidity;BME280_pressure;Samples;Min_cycle;Max_cycle;Signal;HPM_P1;HPM_P2
2022/06/24 18:15:33;;;;;;;1.63;1.63;;;;;;;;;;5068182;28;21142;-64
2022/06/24 18:17:59;;;;;;;1.50;1.50;;;;;;;;;;5068006;28;20431;-67
2022/06/24 18:20:25;;;;;;;1.30;1.30;;;;;;;;;;5066643;28;20448;-64
2022/06/24 18:22:51;;;;;;;1.53;1.43;;;;;;;;;;5068187;28;20473;-65
2022/06/24 18:25:17;;;;;;;2.40;1.40;;;;;;;;;;5068130;28;20419;-65
2022/06/24 18:27:43;;;;;;;2.43;1.40;;;;;;;;;;5065836;28;20788;-78
2022/06/24 18:30:10;;;;;;;1.37;1.37;;;;;;;;;;5067723;28;20430;-63
2022/06/24 18:32:37;;;;;;;1.30;1.30;;;;;;;;;;5068017;28;20792;-72
2022/06/24 18:35:03;;;;;;;1.40;1.30;;;;;;;;;;5070454;28;20532;-67
2022/06/24 18:37:29;;;;;;;1.47;1.37;;;;;;;;;;5070603;28;20412;-73
2022/06/24 18:39:55;;;;;;;3.73;1.50;;;;;;;;;;5070421;28;20459;-72
2022/06/24 18:42:21;;;;;;;1.23;1.23;;;;;;;;;;5069542;28;20434;-70
2022/06/24 18:44:47;;;;;;;3.30;1.33;;;;;;;;;;5069958;28;20438;-72
2022/06/24 18:47:13;;;;;;;0.97;0.97;;;;;;;;;;5068858;28;20513;-69
2022/06/24 18:49:39;;;;;;;1.20;1.20;;;;;;;;;;5068403;28;20466;-63
2022/06/24 18:52:05;;;;;;;1.30;1.30;;;;;;;;;;5067610;28;20899;-65
2022/06/24 18:54:32;;;;;;;1.50;1.40;;;;;;;;;;5067266;28;20506;-70
2022/06/24 18:56:58;;;;;;;1.67;1.67;;;;;;;;;;5061790;28;20888;-69
2022/06/24 18:59:24;;;;;;;1.40;1.40;;;;;;;;;;5066927;28;20428;-63
2022/06/24 19:01:50;;;;;;;2.10;1.80;;;;;;;;;;5067343;28;20460;-63
2022/06/24 19:04:17;;;;;;;1.30;1.20;;;;;;;;;;5067141;28;20427;-67
2022/06/24 19:06:44;;;;;;;1.20;1.20;;;;;;;;;;5067098;28;20411;-70
2022/06/24 19:09:10;;;;;;;3.03;1.40;;;;;;;;;;5066969;28;20419;-72
2022/06/24 19:11:36;;;;;;;1.17;1.17;;;;;;;;;;5067174;28;20411;-75
2022/06/24 19:14:02;;;;;;;1.30;1.30;;;;;;;;;;5066656;28;20850;-77
2022/06/24 19:16:28;;;;;;;1.47;1.43;;;;;;;;;;5067150;28;20565;-78
2022/06/24 19:19:05;;;;;;;1.50;1.50;;;;;;;;;;5066758;28;20729;-78
2022/06/24 19:21:32;;;;;;;1.63;1.50;;;;;;;;;;5061264;28;20416;-78
2022/06/24 19:23:58;;;;;;;1.57;1.47;;;;;;;;;;5062731;28;21110;-77
2022/06/24 19:26:24;;;;;;;1.27;1.27;;;;;;;;;;5053948;28;20437;-75
2022/06/24 19:28:51;;;;;;;1.50;1.40;;;;;;;;;;5053586;28;20923;-78
2022/06/24 19:31:17;;;;;;;2.37;1.80;;;;;;;;;;5053271;28;20428;-63
2022/06/24 19:33:44;;;;;;;2.63;1.50;;;;;;;;;;5053168;28;20565;-73
2022/06/24 19:36:10;;;;;;;3.97;1.27;;;;;;;;;;5053309;28;20416;-75
2022/06/24 19:38:36;;;;;;;1.80;1.80;;;;;;;;;;5053807;28;20422;-81
2022/06/24 19:41:02;;;;;;;2.50;2.40;;;;;;;;;;5053479;28;20848;-78
2022/06/24 19:43:28;;;;;;;1.40;1.30;;;;;;;;;;5053128;28;20436;-74
2022/06/24 19:45:54;;;;;;;1.50;1.50;;;;;;;;;;5053565;28;20902;-77
2022/06/24 19:48:20;;;;;;;1.20;1.20;;;;;;;;;;5051288;28;20513;-70
2022/06/24 19:50:46;;;;;;;1.87;1.50;;;;;;;;;;5053058;28;20427;-81
2022/06/24 19:53:12;;;;;;;1.87;1.30;;;;;;;;;;5052504;28;20502;-69
2022/06/24 19:55:38;;;;;;;1.33;1.27;;;;;;;;;;5051775;28;20442;-84
2022/06/24 19:58:04;;;;;;;5.30;1.23;;;;;;;;;;5052803;28;20420;-79
2022/06/24 20:00:31;;;;;;;2.70;1.63;;;;;;;;;;5052647;28;20491;-64
2022/06/24 20:05:48;;;;;;;1.83;1.73;;;;;;;;;;5050749;28;20451;-65
2022/06/24 20:08:15;;;;;;;1.47;1.40;;;;;;;;;;5050487;28;20423;-65
2022/06/24 20:10:41;;;;;;;1.47;1.37;;;;;;;;;;5050785;28;20434;-64
2022/06/24 20:13:07;;;;;;;1.70;1.60;;;;;;;;;;5052460;28;20419;-66
2022/06/24 20:15:33;;;;;;;2.30;1.50;;;;;;;;;;5052427;28;20757;-75
2022/06/24 20:18:00;;;;;;;1.50;1.40;;;;;;;;;;5051260;28;20415;-71
2022/06/24 20:20:26;;;;;;;1.70;1.60;;;;;;;;;;5052575;28;20436;-73
2022/06/24 20:22:52;;;;;;;1.40;1.40;;;;;;;;;;5052984;28;20407;-71
2022/06/24 20:25:25;;;;;;;1.40;1.40;;;;;;;;;;5052584;28;20426;-81
2022/06/24 20:27:51;;;;;;;1.57;1.47;;;;;;;;;;5052747;28;20404;-73
2022/06/24 20:30:18;;;;;;;1.50;1.37;;;;;;;;;;5050320;28;20924;-73
2022/06/24 20:32:44;;;;;;;1.40;1.30;;;;;;;;;;5052362;28;20419;-75
2022/06/24 20:35:10;;;;;;;1.83;1.47;;;;;;;;;;5052360;28;20560;-79
2022/06/24 20:37:36;;;;;;;2.00;1.53;;;;;;;;;;5049326;28;20408;-78
2022/06/24 20:40:02;;;;;;;1.30;1.20;;;;;;;;;;5046796;28;20441;-80
2022/06/24 20:42:28;;;;;;;6.07;1.17;;;;;;;;;;5052199;28;20937;-75
2022/06/24 20:44:53;;;;;;;1.37;1.37;;;;;;;;;;5052038;28;20460;-64
2022/06/24 20:47:19;;;;;;;1.10;1.10;;;;;;;;;;5051942;28;20559;-69
2022/06/24 20:49:45;;;;;;;1.33;1.33;;;;;;;;;;5051993;28;20430;-69
2022/06/24 20:52:11;;;;;;;2.30;1.00;;;;;;;;;;5051893;28;20804;-64
2022/06/24 20:54:37;;;;;;;2.93;1.67;;;;;;;;;;5053900;28;20514;-73
2022/06/24 20:57:04;;;;;;;2.40;1.27;;;;;;;;;;5054503;28;20399;-65
2022/06/24 20:59:30;;;;;;;1.63;1.63;;;;;;;;;;5054373;28;20489;-75
2022/06/24 21:01:55;;;;;;;2.20;1.43;;;;;;;;;;5054253;28;20405;-64
2022/06/24 21:04:22;;;;;;;1.20;1.20;;;;;;;;;;5054431;28;20427;-67
2022/06/24 21:06:50;;;;;;;1.30;1.30;;;;;;;;;;5054355;28;20407;-64
2022/06/24 21:09:19;;;;;;;1.10;1.10;;;;;;;;;;5054205;28;20395;-67
2022/06/24 21:11:45;;;;;;;1.13;1.03;;;;;;;;;;5054464;28;20411;-67
2022/06/24 21:14:11;;;;;;;1.40;1.30;;;;;;;;;;5053896;28;20479;-76
2022/06/24 21:16:37;;;;;;;1.27;1.27;;;;;;;;;;5054217;28;20904;-70
2022/06/24 21:19:03;;;;;;;1.57;1.57;;;;;;;;;;5054123;28;20407;-73
2022/06/24 21:21:29;;;;;;;1.43;1.43;;;;;;;;;;5054011;28;20462;-77
2022/06/24 21:23:55;;;;;;;1.60;1.50;;;;;;;;;;5054043;28;20418;-65
2022/06/24 21:26:21;;;;;;;1.20;1.20;;;;;;;;;;5052743;28;20429;-76
2022/06/24 21:28:47;;;;;;;1.50;1.40;;;;;;;;;;5053802;28;20418;-68
2022/06/24 21:31:13;;;;;;;1.27;1.20;;;;;;;;;;5053975;28;20414;-65
2022/06/24 21:33:39;;;;;;;1.50;1.40;;;;;;;;;;5053792;28;20464;-67
2022/06/24 21:36:06;;;;;;;2.60;1.43;;;;;;;;;;5053779;28;20430;-68
2022/06/24 21:38:32;;;;;;;1.87;1.30;;;;;;;;;;5053718;28;20476;-73
2022/06/24 21:40:58;;;;;;;1.40;1.30;;;;;;;;;;5053754;28;20402;-74
2022/06/24 21:43:24;;;;;;;4.60;4.30;;;;;;;;;;5053652;28;20410;-67
2022/06/24 21:45:50;;;;;;;5.07;4.77;;;;;;;;;;5053634;28;20406;-73
2022/06/24 21:48:16;;;;;;;4.27;1.50;;;;;;;;;;5053388;28;20410;-76
2022/06/24 21:50:42;;;;;;;1.40;1.30;;;;;;;;;;5053677;28;20553;-69
2022/06/24 21:53:08;;;;;;;3.70;1.50;;;;;;;;;;5053552;28;20772;-70
2022/06/24 21:55:34;;;;;;;1.63;1.30;;;;;;;;;;5053614;28;20526;-67
2022/06/24 21:58:00;;;;;;;2.45;1.10;;;;;;;;;;5053254;28;20410;-77
2022/06/24 22:00:26;;;;;;;1.20;1.10;;;;;;;;;;5052634;28;20426;-69
2022/06/24 22:02:52;;;;;;;1.40;1.30;;;;;;;;;;5053500;28;20239;-72
2022/06/24 22:05:18;;;;;;;2.30;1.30;;;;;;;;;;5053394;28;20762;-73
2022/06/24 22:07:44;;;;;;;6.90;1.27;;;;;;;;;;5053535;28;20420;-77
2022/06/24 22:10:11;;;;;;;1.37;1.33;;;;;;;;;;5052124;28;20415;-70
2022/06/24 22:12:38;;;;;;;3.07;1.43;;;;;;;;;;5053636;28;20448;-77
2022/06/24 22:15:04;;;;;;;1.77;1.67;;;;;;;;;;5053090;28;20491;-78
2022/06/24 22:17:51;;;;;;;3.83;1.10;;;;;;;;;;5053312;28;20409;-78
2022/06/24 22:20:18;;;;;;;2.00;1.10;;;;;;;;;;5053288;28;20400;-77
2022/06/24 22:22:44;;;;;;;2.20;1.27;;;;;;;;;;5052012;28;20444;-77
2022/06/24 22:25:10;;;;;;;1.90;1.20;;;;;;;;;;5053295;28;20414;-75
2022/06/24 22:27:36;;;;;;;2.10;1.07;;;;;;;;;;5053193;28;20416;-78
2022/06/24 22:30:02;;;;;;;1.50;1.30;;;;;;;;;;5053064;28;20460;-78
2022/06/24 22:32:28;;;;;;;1.30;1.23;;;;;;;;;;5053209;28;20773;-78
2022/06/24 22:34:54;;;;;;;3.70;1.10;;;;;;;;;;5053106;28;20476;-78
2022/06/24 22:37:20;;;;;;;2.50;1.33;;;;;;;;;;5053210;28;20410;-78
2022/06/24 22:39:46;;;;;;;1.23;1.23;;;;;;;;;;5053188;28;20412;-77
2022/06/24 22:42:12;;;;;;;3.00;1.27;;;;;;;;;;5053183;28;20909;-77
2022/06/24 22:44:38;;;;;;;1.20;1.20;;;;;;;;;;5053045;28;20429;-78
2022/06/24 22:47:05;;;;;;;1.33;1.33;;;;;;;;;;5053005;28;20533;-76
2022/06/24 22:49:31;;;;;;;2.23;1.60;;;;;;;;;;5052977;28;21011;-77
2022/06/24 22:51:57;;;;;;;1.43;1.43;;;;;;;;;;5052990;28;20486;-78
2022/06/24 22:54:23;;;;;;;3.20;1.33;;;;;;;;;;5052941;28;20574;-77
2022/06/24 22:56:49;;;;;;;1.53;1.43;;;;;;;;;;5052961;28;20416;-76
2022/06/24 22:59:15;;;;;;;1.57;1.47;;;;;;;;;;5051607;28;20871;-78
2022/06/24 23:01:41;;;;;;;4.10;1.53;;;;;;;;;;5055675;28;20439;-75
2022/06/24 23:04:08;;;;;;;3.67;1.80;;;;;;;;;;5056661;28;20452;-77
2022/06/24 23:06:34;;;;;;;3.50;1.30;;;;;;;;;;5056595;28;20400;-75
2022/06/24 23:09:01;;;;;;;4.40;1.80;;;;;;;;;;5056557;28;20464;-78
2022/06/24 23:11:27;;;;;;;1.77;1.67;;;;;;;;;;5056789;28;20432;-78
2022/06/24 23:13:53;;;;;;;6.13;1.90;;;;;;;;;;5056273;28;20514;-75
2022/06/24 23:16:19;;;;;;;2.60;1.37;;;;;;;;;;5056481;28;20469;-78
2022/06/24 23:18:45;;;;;;;1.53;1.53;;;;;;;;;;5056418;28;20432;-76
2022/06/24 23:21:11;;;;;;;5.90;1.67;;;;;;;;;;5056476;28;20412;-77
2022/06/24 23:23:37;;;;;;;6.03;1.93;;;;;;;;;;5056339;28;20959;-76
2022/06/24 23:26:03;;;;;;;5.40;1.40;;;;;;;;;;5056334;28;20451;-77
2022/06/24 23:28:29;;;;;;;2.77;1.40;;;;;;;;;;5056237;28;20448;-77
2022/06/24 23:30:55;;;;;;;3.70;1.50;;;;;;;;;;5056261;28;20554;-77
2022/06/24 23:33:21;;;;;;;1.70;1.47;;;;;;;;;;5054750;28;20435;-76
2022/06/24 23:35:47;;;;;;;1.33;1.20;;;;;;;;;;5054819;28;20419;-76
2022/06/24 23:38:13;;;;;;;2.50;1.40;;;;;;;;;;5056032;28;20408;-77
2022/06/24 23:40:50;;;;;;;2.00;1.47;;;;;;;;;;5056177;28;20419;-77
2022/06/24 23:43:17;;;;;;;1.67;1.60;;;;;;;;;;5055905;28;20414;-74
2022/06/24 23:45:43;;;;;;;1.40;1.40;;;;;;;;;;5055853;28;20424;-78
2022/06/24 23:53:38;;;;;;;1.70;1.60;;;;;;;;;;5055683;28;20560;-77
2022/06/24 23:56:04;;;;;;;1.30;1.30;;;;;;;;;;5055706;28;20419;-77
2022/06/24 23:58:30;;;;;;;3.90;1.30;;;;;;;;;;5055675;28;20422;-77
